createdAt,value
2019-01-27T00:02:00.063Z,1.40
2019-01-27T00:04:30.247Z,2.08
2019-01-27T00:06:59.530Z,1.82
2019-01-27T00:09:28.727Z,1.75
2019-01-27T00:11:58.417Z,2.25
2019-01-27T00:14:27.894Z,2.12
2019-01-27T00:16:57.090Z,2.22
2019-01-27T00:19:26.301Z,2.83
2019-01-27T00:21:55.649Z,1.80
2019-01-27T00:24:24.862Z,1.30
2019-01-27T00:26:54.044Z,1.52
2019-01-27T00:29:23.327Z,1.00
2019-01-27T00:31:52.746Z,1.62
2019-01-27T00:34:22.606Z,1.37
2019-01-27T00:36:51.868Z,1.05
2019-01-27T00:39:21.431Z,1.20
2019-01-27T00:41:50.560Z,1.77
2019-01-27T00:44:19.794Z,1.90
2019-01-27T00:46:49.945Z,1.17
2019-01-27T00:49:19.894Z,1.85
2019-01-27T00:51:49.189Z,1.42
2019-01-27T00:54:18.400Z,0.90
2019-01-27T00:56:47.732Z,1.67
2019-01-27T00:59:18.250Z,2.15
2019-01-27T01:01:48.013Z,1.00
2019-01-27T01:04:17.622Z,0.95
2019-01-27T01:06:47.255Z,1.00
2019-01-27T01:09:17.092Z,2.60
2019-01-27T01:11:46.212Z,2.05
2019-01-27T01:14:15.446Z,1.20
2019-01-27T01:16:44.702Z,1.50
2019-01-27T01:19:13.943Z,1.40
2019-01-27T01:21:43.082Z,1.50
2019-01-27T01:24:13.642Z,1.30
2019-01-27T01:26:42.744Z,1.17
2019-01-27T01:29:12.230Z,1.45
2019-01-27T01:31:41.398Z,1.52
2019-01-27T01:34:12.134Z,2.27
2019-01-27T01:36:41.412Z,1.20
2019-01-27T01:39:10.664Z,1.00
2019-01-27T01:41:39.994Z,3.00
2019-01-27T01:44:10.179Z,1.47
2019-01-27T01:46:39.456Z,1.87
2019-01-27T01:49:08.925Z,1.40
2019-01-27T01:51:39.752Z,1.30
2019-01-27T01:54:10.426Z,1.52
2019-01-27T01:56:39.636Z,3.10
2019-01-27T01:59:08.865Z,1.40
2019-01-27T02:01:39.753Z,1.85
2019-01-27T02:04:08.906Z,1.85
2019-01-27T02:06:38.631Z,2.17
2019-01-27T02:09:11.442Z,1.45
2019-01-27T02:11:40.962Z,2.58
2019-01-27T02:14:10.192Z,1.25
2019-01-27T02:16:39.526Z,5.83
2019-01-27T02:19:11.175Z,1.30
2019-01-27T02:21:40.451Z,1.70
2019-01-27T02:24:10.819Z,1.40
2019-01-27T02:26:39.974Z,2.60
2019-01-27T02:29:09.106Z,1.47
2019-01-27T02:31:38.309Z,1.47
2019-01-27T02:34:07.548Z,2.40
2019-01-27T02:36:36.724Z,2.30
2019-01-27T02:39:09.199Z,1.75
2019-01-27T02:41:38.392Z,1.80
2019-01-27T02:44:07.631Z,1.77
2019-01-27T02:46:36.773Z,1.90
2019-01-27T02:49:05.971Z,1.15
2019-01-27T02:51:35.177Z,2.75
2019-01-27T02:54:04.629Z,1.00
2019-01-27T02:56:33.799Z,0.90
2019-01-27T02:59:03.122Z,0.82
2019-01-27T03:01:32.432Z,0.70
2019-01-27T03:04:02.012Z,1.17
2019-01-27T03:06:50.223Z,0.85
2019-01-27T03:09:23.394Z,0.93
2019-01-27T03:11:52.630Z,3.10
2019-01-27T03:14:22.221Z,1.02
2019-01-27T03:16:53.038Z,1.47
2019-01-27T03:19:22.626Z,2.35
2019-01-27T03:21:51.804Z,1.02
2019-01-27T03:24:21.050Z,1.30
2019-01-27T03:26:50.706Z,1.07
2019-01-27T03:29:19.908Z,1.45
2019-01-27T03:31:49.139Z,1.17
2019-01-27T03:34:18.393Z,1.15
2019-01-27T03:36:47.794Z,1.87
2019-01-27T03:39:16.956Z,2.45
2019-01-27T03:41:46.174Z,1.62
2019-01-27T03:44:15.320Z,1.52
2019-01-27T03:46:44.513Z,1.07
2019-01-27T03:49:13.691Z,1.67
2019-01-27T03:51:42.848Z,2.72
2019-01-27T03:54:11.988Z,1.15
2019-01-27T03:56:41.160Z,2.05
2019-01-27T03:59:10.420Z,3.35
2019-01-27T04:01:39.640Z,1.22
2019-01-27T04:04:08.950Z,1.20
2019-01-27T04:06:38.211Z,0.98
2019-01-27T04:09:12.126Z,0.70
2019-01-27T04:11:41.284Z,1.15
2019-01-27T04:14:11.751Z,0.90
2019-01-27T04:16:40.863Z,0.82
2019-01-27T04:19:10.047Z,3.25
2019-01-27T04:21:39.184Z,0.70
2019-01-27T04:24:08.532Z,0.70
2019-01-27T04:26:37.707Z,0.72
2019-01-27T04:29:06.846Z,1.10
2019-01-27T04:31:36.082Z,0.68
2019-01-27T04:34:05.924Z,0.93
2019-01-27T04:36:35.160Z,0.90
2019-01-27T04:39:06.889Z,1.12
2019-01-27T04:41:36.311Z,0.62
2019-01-27T04:44:05.753Z,0.60
2019-01-27T04:46:34.938Z,0.70
2019-01-27T04:49:04.278Z,0.50
2019-01-27T04:51:33.512Z,3.80
2019-01-27T04:54:02.746Z,1.02
2019-01-27T04:56:31.917Z,1.50
2019-01-27T04:59:01.111Z,0.75
2019-01-27T05:01:30.256Z,0.70
2019-01-27T05:04:04.406Z,0.72
2019-01-27T05:06:33.682Z,0.60
2019-01-27T05:09:05.105Z,1.70
2019-01-27T05:11:34.322Z,1.30
2019-01-27T05:14:03.471Z,0.70
2019-01-27T05:16:32.624Z,0.93
2019-01-27T05:19:01.872Z,0.50
2019-01-27T05:21:31.068Z,0.50
2019-01-27T05:24:00.532Z,0.75
2019-01-27T05:26:29.704Z,1.17
2019-01-27T05:28:58.960Z,0.60
2019-01-27T05:31:28.097Z,0.60
2019-01-27T05:33:57.280Z,0.70
2019-01-27T05:36:26.717Z,0.50
2019-01-27T05:38:55.840Z,0.60
2019-01-27T05:41:25.036Z,0.75
2019-01-27T05:43:54.826Z,0.60
2019-01-27T05:46:25.936Z,0.80
2019-01-27T05:48:55.206Z,1.10
2019-01-27T05:51:24.765Z,1.22
2019-01-27T05:53:53.954Z,0.60
2019-01-27T05:56:23.193Z,2.05
2019-01-27T05:58:52.525Z,0.90
2019-01-27T06:01:21.829Z,0.70
2019-01-27T06:03:51.007Z,0.60
2019-01-27T06:06:20.655Z,3.42
2019-01-27T06:08:49.843Z,1.02
2019-01-27T06:11:19.054Z,1.07
2019-01-27T06:13:48.167Z,0.80
2019-01-27T06:16:17.351Z,1.00
2019-01-27T06:18:46.846Z,0.88
2019-01-27T06:21:16.021Z,1.25
2019-01-27T06:23:45.222Z,0.98
2019-01-27T06:26:14.430Z,1.05
2019-01-27T06:28:43.575Z,0.88
2019-01-27T06:31:12.807Z,1.27
2019-01-27T06:33:46.979Z,2.00
2019-01-27T06:36:16.171Z,1.22
2019-01-27T06:38:45.305Z,1.37
2019-01-27T06:41:14.465Z,3.10
2019-01-27T06:43:43.643Z,1.12
2019-01-27T06:46:12.842Z,1.22
2019-01-27T06:48:42.089Z,0.70
2019-01-27T06:51:11.230Z,1.07
2019-01-27T06:53:40.406Z,1.60
2019-01-27T06:56:09.542Z,0.70
2019-01-27T06:58:56.422Z,0.82
2019-01-27T07:01:37.242Z,1.47
2019-01-27T07:04:20.348Z,0.70
2019-01-27T07:07:20.645Z,0.82
2019-01-27T07:10:05.317Z,0.72
2019-01-27T07:12:40.197Z,0.60
2019-01-27T07:15:28.891Z,0.60
2019-01-27T07:18:14.471Z,1.62
2019-01-27T07:21:11.762Z,1.07
2019-01-27T07:23:49.230Z,1.15
2019-01-27T07:26:31.560Z,1.02
2019-01-27T07:29:17.449Z,1.65
2019-01-27T07:32:04.839Z,0.90
2019-01-27T07:34:50.154Z,0.85
2019-01-27T07:37:42.754Z,0.85
2019-01-27T07:40:31.410Z,1.72
2019-01-27T07:43:07.532Z,1.10
2019-01-27T07:45:44.531Z,0.85
2019-01-27T07:48:39.143Z,1.05
2019-01-27T07:51:19.923Z,0.80
2019-01-27T07:54:17.545Z,1.20
2019-01-27T07:57:11.641Z,1.55
2019-01-27T07:59:46.802Z,2.95
2019-01-27T08:02:38.352Z,1.12
2019-01-27T08:05:33.398Z,1.72
2019-01-27T08:08:21.729Z,1.32
2019-01-27T08:11:08.911Z,2.52
2019-01-27T08:13:53.435Z,1.62
2019-01-27T08:16:43.183Z,1.30
2019-01-27T08:19:31.422Z,1.30
2019-01-27T08:22:38.773Z,1.00
2019-01-27T08:25:29.169Z,2.35
2019-01-27T08:28:15.420Z,2.27
2019-01-27T08:31:26.074Z,2.25
2019-01-27T08:34:14.580Z,2.20
2019-01-27T08:36:56.967Z,5.03
2019-01-27T08:39:58.656Z,3.20
2019-01-27T08:42:56.223Z,4.40
2019-01-27T08:45:51.535Z,1.55
2019-01-27T08:48:20.529Z,2.30
2019-01-27T08:50:54.124Z,2.37
2019-01-27T08:53:25.126Z,3.05
2019-01-27T08:55:54.379Z,1.90
2019-01-27T08:58:23.830Z,3.70
2019-01-27T09:01:00.599Z,2.35
2019-01-27T09:03:51.754Z,3.42
2019-01-27T09:06:57.222Z,2.65
2019-01-27T09:09:43.648Z,2.83
2019-01-27T09:12:38.198Z,2.83
2019-01-27T09:15:25.749Z,3.90
2019-01-27T09:18:07.918Z,2.30
2019-01-27T09:20:51.412Z,2.52
2019-01-27T09:23:35.706Z,2.65
2019-01-27T09:26:16.511Z,2.02
2019-01-27T09:28:52.919Z,1.45
2019-01-27T09:31:47.610Z,2.95
2019-01-27T09:34:29.476Z,9.25
2019-01-27T09:37:16.365Z,3.40
2019-01-27T09:39:58.216Z,1.15
2019-01-27T09:42:35.193Z,2.45
2019-01-27T09:45:18.003Z,1.10
2019-01-27T09:48:00.126Z,1.95
2019-01-27T09:50:56.918Z,2.12
2019-01-27T09:53:56.060Z,5.97
2019-01-27T09:56:57.541Z,2.52
2019-01-27T09:59:44.734Z,2.65
2019-01-27T10:02:35.091Z,6.15
2019-01-27T10:05:26.690Z,3.35
2019-01-27T10:08:30.131Z,1.60
2019-01-27T10:11:07.243Z,6.72
2019-01-27T10:13:54.346Z,3.00
2019-01-27T10:16:35.985Z,5.20
2019-01-27T10:19:24.154Z,3.77
2019-01-27T10:22:02.217Z,3.77
2019-01-27T10:24:41.680Z,2.02
2019-01-27T10:27:26.923Z,5.28
2019-01-27T10:30:06.840Z,5.60
2019-01-27T10:32:55.011Z,4.12
2019-01-27T10:35:55.023Z,1.60
2019-01-27T10:38:41.776Z,4.95
2019-01-27T10:41:27.789Z,1.92
2019-01-27T10:44:13.631Z,6.28
2019-01-27T10:47:11.220Z,1.65
2019-01-27T10:50:05.584Z,1.85
2019-01-27T10:52:46.360Z,3.37
2019-01-27T10:55:35.025Z,2.22
2019-01-27T10:58:17.072Z,2.87
2019-01-27T11:01:11.110Z,1.57
2019-01-27T11:04:13.229Z,3.37
2019-01-27T11:07:00.495Z,4.80
2019-01-27T11:09:59.763Z,3.17
2019-01-27T11:12:46.698Z,3.37
2019-01-27T11:15:53.326Z,4.20
2019-01-27T11:18:50.528Z,2.72
2019-01-27T11:21:44.869Z,4.00
2019-01-27T11:24:27.563Z,5.28
2019-01-27T11:27:24.824Z,6.12
2019-01-27T11:30:32.127Z,3.55
2019-01-27T11:33:26.193Z,1.95
2019-01-27T11:36:22.647Z,2.70
2019-01-27T11:39:14.336Z,3.58
2019-01-27T11:42:09.443Z,5.17
2019-01-27T11:44:52.990Z,2.27
2019-01-27T11:47:44.645Z,5.00
2019-01-27T11:50:21.056Z,3.45
2019-01-27T11:53:02.561Z,2.10
2019-01-27T11:55:35.741Z,1.80
2019-01-27T11:58:08.324Z,2.50
2019-01-27T12:00:44.305Z,2.05
2019-01-27T12:03:13.829Z,2.60
2019-01-27T12:05:43.510Z,3.80
2019-01-27T12:08:18.771Z,1.50
2019-01-27T12:10:58.641Z,2.10
2019-01-27T12:13:30.031Z,2.67
2019-01-27T12:15:59.653Z,3.00
2019-01-27T12:18:35.344Z,1.27
2019-01-27T12:21:11.612Z,2.25
2019-01-27T12:23:43.380Z,1.17
2019-01-27T12:26:14.924Z,1.80
2019-01-27T12:28:46.741Z,2.33
2019-01-27T12:31:19.054Z,5.60
2019-01-27T12:33:48.627Z,3.10
2019-01-27T12:36:21.187Z,1.57
2019-01-27T12:38:54.312Z,1.42
2019-01-27T12:41:26.689Z,2.17
2019-01-27T12:43:59.558Z,3.77
2019-01-27T12:46:30.921Z,7.10
2019-01-27T12:49:05.212Z,3.12
2019-01-27T12:51:35.941Z,2.45
2019-01-27T12:54:16.276Z,1.42
2019-01-27T12:56:47.309Z,1.12
2019-01-27T12:59:41.423Z,1.30
2019-01-27T13:02:12.286Z,2.85
2019-01-27T13:04:43.838Z,1.50
2019-01-27T13:07:16.263Z,1.92
2019-01-27T13:09:45.915Z,2.58
2019-01-27T13:12:16.015Z,2.10
2019-01-27T13:14:45.825Z,2.70
2019-01-27T13:17:16.189Z,1.52
2019-01-27T13:19:53.569Z,3.87
2019-01-27T13:22:18.265Z,0.98
2019-01-27T13:24:50.082Z,1.20
2019-01-27T13:27:20.214Z,1.50
2019-01-27T13:29:51.644Z,3.27
2019-01-27T13:32:25.653Z,1.20
2019-01-27T13:35:01.559Z,1.10
2019-01-27T13:37:33.539Z,1.10
2019-01-27T13:43:46.427Z,1.40
2019-01-27T13:46:16.717Z,1.20
2019-01-27T13:48:48.328Z,13.48
2019-01-27T13:51:20.833Z,1.72
2019-01-27T13:53:56.026Z,1.02
2019-01-27T13:56:26.261Z,1.00
2019-01-27T13:59:03.271Z,2.08
2019-01-27T14:01:32.528Z,1.57
2019-01-27T14:04:03.314Z,1.80
2019-01-27T14:06:32.889Z,7.90
2019-01-27T14:09:04.611Z,2.58
2019-01-27T14:11:34.022Z,1.50
2019-01-27T14:14:04.794Z,1.00
2019-01-27T14:16:35.250Z,1.35
2019-01-27T14:19:05.330Z,1.15
2019-01-27T14:21:35.405Z,1.98
2019-01-27T14:24:05.335Z,2.67
2019-01-27T14:26:35.877Z,1.80
2019-01-27T14:29:05.678Z,0.80
2019-01-27T14:31:38.694Z,1.50
2019-01-27T14:34:20.823Z,2.35
2019-01-27T14:36:50.451Z,1.95
2019-01-27T14:39:28.257Z,2.20
2019-01-27T14:42:13.778Z,2.98
2019-01-27T14:45:22.597Z,1.55
2019-01-27T14:51:05.794Z,3.30
2019-01-27T14:54:10.236Z,3.98
2019-01-27T14:56:44.117Z,1.50
2019-01-27T14:59:28.503Z,1.90
2019-01-27T15:02:06.694Z,3.80
2019-01-27T15:04:41.322Z,5.83
2019-01-27T15:07:20.708Z,5.22
2019-01-27T15:09:53.700Z,1.70
2019-01-27T15:12:34.753Z,4.00
2019-01-27T15:15:16.976Z,3.90
2019-01-27T15:17:55.653Z,3.85
2019-01-27T15:20:35.703Z,4.00
2019-01-27T15:26:09.859Z,3.02
2019-01-27T15:28:41.399Z,1.57
2019-01-27T15:31:16.822Z,2.55
2019-01-27T15:33:51.395Z,2.98
2019-01-27T15:36:31.436Z,6.42
2019-01-27T15:39:16.528Z,2.70
2019-01-27T15:42:06.149Z,2.22
2019-01-27T15:44:55.387Z,2.87
2019-01-27T15:47:28.603Z,4.47
2019-01-27T15:50:03.732Z,2.33
2019-01-27T15:52:40.819Z,4.05
2019-01-27T15:55:15.896Z,4.35
2019-01-27T15:57:56.405Z,2.85
2019-01-27T16:00:30.933Z,3.92
2019-01-27T16:03:00.665Z,5.05
2019-01-27T16:05:30.020Z,4.25
2019-01-27T16:08:01.593Z,3.17
2019-01-27T16:10:43.917Z,4.28
2019-01-27T16:13:13.473Z,3.10
2019-01-27T16:15:50.837Z,3.08
2019-01-27T16:18:21.067Z,3.45
2019-01-27T16:20:51.309Z,3.17
2019-01-27T16:23:43.995Z,3.65
2019-01-27T16:26:18.777Z,5.28
2019-01-27T16:28:48.059Z,4.35
2019-01-27T16:31:40.400Z,5.78
2019-01-27T16:34:27.905Z,8.68
2019-01-27T16:36:57.187Z,9.18
2019-01-27T16:39:26.657Z,4.45
2019-01-27T16:41:56.050Z,7.60
2019-01-27T16:44:26.113Z,8.40
2019-01-27T16:46:55.618Z,7.92
2019-01-27T16:49:25.093Z,6.95
2019-01-27T16:51:54.651Z,6.95
2019-01-27T16:57:26.865Z,9.03
2019-01-27T16:59:56.885Z,7.20
2019-01-27T17:02:26.275Z,11.70
2019-01-27T17:04:55.864Z,7.15
2019-01-27T17:07:26.061Z,9.55
2019-01-27T17:09:55.404Z,10.25
2019-01-27T17:12:24.794Z,7.65
2019-01-27T17:14:54.090Z,7.90
2019-01-27T17:17:23.393Z,14.00
2019-01-27T17:19:52.614Z,12.68
2019-01-27T17:22:23.435Z,16.37
2019-01-27T17:24:53.058Z,9.98
2019-01-27T17:27:22.323Z,8.58
2019-01-27T17:29:51.703Z,15.08
2019-01-27T17:32:21.182Z,12.93
2019-01-27T17:34:51.424Z,19.82
2019-01-27T17:37:23.892Z,10.72
2019-01-27T17:39:53.706Z,13.05
2019-01-27T17:42:23.706Z,13.90
2019-01-27T17:44:53.164Z,14.15
2019-01-27T17:47:22.906Z,19.67
2019-01-27T17:49:52.152Z,17.67
2019-01-27T17:52:21.527Z,14.47
2019-01-27T17:54:54.044Z,11.15
2019-01-27T17:57:43.082Z,12.18
2019-01-27T18:00:40.728Z,23.57
2019-01-27T18:03:22.172Z,18.10
2019-01-27T18:06:10.425Z,16.67
2019-01-27T18:09:10.968Z,15.75
2019-01-27T18:11:51.026Z,24.70
2019-01-27T18:14:28.281Z,13.60
2019-01-27T18:16:57.470Z,20.48
2019-01-27T18:19:26.830Z,19.67
2019-01-27T18:21:56.035Z,13.58
2019-01-27T18:24:25.234Z,19.32
2019-01-27T18:26:54.582Z,11.48
2019-01-27T18:29:23.807Z,14.07
2019-01-27T18:31:53.534Z,18.02
2019-01-27T18:34:22.879Z,17.90
2019-01-27T18:36:52.134Z,11.10
2019-01-27T18:39:21.682Z,13.30
2019-01-27T18:41:51.015Z,8.20
2019-01-27T18:44:20.236Z,16.15
2019-01-27T18:46:49.521Z,19.75
2019-01-27T18:49:18.758Z,14.00
2019-01-27T18:51:48.073Z,15.32
2019-01-27T18:54:45.657Z,14.95
2019-01-27T18:57:39.911Z,10.30
2019-01-27T19:00:40.455Z,14.93
2019-01-27T19:03:14.550Z,13.53
2019-01-27T19:06:02.696Z,10.53
2019-01-27T19:09:00.299Z,9.58
2019-01-27T19:11:41.742Z,17.27
2019-01-27T19:14:39.329Z,11.78
2019-01-27T19:17:30.659Z,17.67
2019-01-27T19:20:10.905Z,18.07
2019-01-27T19:22:48.785Z,19.05
2019-01-27T19:25:30.865Z,16.20
2019-01-27T19:28:14.609Z,13.13
2019-01-27T19:31:04.479Z,13.30
2019-01-27T19:34:02.099Z,14.95
2019-01-27T19:36:53.550Z,14.60
2019-01-27T19:39:37.679Z,18.75
2019-01-27T19:42:22.475Z,18.40
2019-01-27T19:45:09.846Z,18.70
2019-01-27T19:48:01.278Z,10.98
2019-01-27T19:50:48.551Z,16.02
2019-01-27T19:53:43.826Z,15.65
2019-01-27T19:56:44.945Z,14.35
2019-01-27T19:59:36.410Z,12.37
2019-01-27T20:02:30.621Z,16.70
2019-01-27T20:05:28.102Z,11.65
2019-01-27T20:08:25.896Z,11.28
2019-01-27T20:11:24.445Z,15.38
2019-01-27T20:14:13.204Z,10.53
2019-01-27T20:17:06.218Z,17.75
2019-01-27T20:19:53.720Z,12.15
2019-01-27T20:22:41.332Z,12.75
2019-01-27T20:25:28.811Z,15.50
2019-01-27T20:28:11.576Z,10.75
2019-01-27T20:31:00.088Z,12.70
2019-01-27T20:33:47.284Z,18.92
2019-01-27T20:36:34.491Z,11.85
2019-01-27T20:39:24.986Z,15.65
2019-01-27T20:42:16.421Z,15.32
2019-01-27T20:45:15.670Z,16.35
2019-01-27T20:48:16.150Z,14.18
2019-01-27T20:51:13.230Z,14.05
2019-01-27T20:54:04.623Z,16.27
2019-01-27T20:56:53.224Z,10.13
2019-01-27T20:59:39.656Z,15.60
2019-01-27T21:02:37.167Z,23.22
2019-01-27T21:05:27.934Z,15.00
2019-01-27T21:08:12.742Z,17.23
2019-01-27T21:11:00.363Z,12.70
2019-01-27T21:13:57.592Z,15.68
2019-01-27T21:17:04.206Z,13.00
2019-01-27T21:19:38.230Z,12.70
2019-01-27T21:22:07.384Z,16.57
2019-01-27T21:24:37.194Z,18.40
2019-01-27T21:27:06.796Z,19.17
2019-01-27T21:29:36.258Z,13.48
2019-01-27T21:32:05.604Z,12.40
2019-01-27T21:34:34.915Z,15.88
2019-01-27T21:37:04.270Z,14.15
2019-01-27T21:39:33.629Z,16.50
2019-01-27T21:42:03.012Z,15.60
2019-01-27T21:44:32.266Z,13.68
2019-01-27T21:47:01.504Z,19.30
2019-01-27T21:49:30.822Z,13.45
2019-01-27T21:52:00.119Z,14.40
2019-01-27T21:54:29.383Z,16.00
2019-01-27T21:56:58.854Z,12.45
2019-01-27T21:59:28.110Z,14.95
2019-01-27T22:01:57.612Z,15.60
2019-01-27T22:04:26.891Z,13.05
2019-01-27T22:06:56.116Z,11.28
2019-01-27T22:09:25.379Z,10.43
2019-01-27T22:11:54.495Z,14.98
2019-01-27T22:14:23.653Z,8.78
2019-01-27T22:16:52.938Z,16.30
2019-01-27T22:19:22.197Z,11.22
2019-01-27T22:21:51.618Z,17.52
2019-01-27T22:24:20.949Z,14.45
2019-01-27T22:26:50.239Z,14.58
2019-01-27T22:29:19.531Z,13.40
2019-01-27T22:31:48.845Z,13.68
2019-01-27T22:34:18.133Z,12.58
2019-01-27T22:36:47.325Z,13.85
2019-01-27T22:39:16.447Z,16.00
2019-01-27T22:41:45.757Z,18.42
2019-01-27T22:44:14.979Z,19.57
2019-01-27T22:46:44.131Z,18.40
2019-01-27T22:49:13.265Z,12.00
2019-01-27T22:51:42.440Z,14.40
2019-01-27T22:54:11.742Z,13.20
2019-01-27T22:56:41.002Z,16.15
2019-01-27T22:59:10.236Z,11.50
2019-01-27T23:01:39.502Z,11.25
2019-01-27T23:04:09.146Z,15.83
2019-01-27T23:06:38.335Z,17.32
2019-01-27T23:09:13.201Z,14.95
2019-01-27T23:11:42.339Z,14.60
2019-01-27T23:14:11.561Z,16.80
2019-01-27T23:16:40.855Z,18.10
2019-01-27T23:19:09.985Z,15.50
2019-01-27T23:21:39.115Z,15.15
2019-01-27T23:24:08.321Z,19.40
2019-01-27T23:26:37.555Z,26.48
2019-01-27T23:29:06.753Z,14.80
2019-01-27T23:31:35.932Z,22.40
2019-01-27T23:34:05.381Z,25.35
2019-01-27T23:36:34.605Z,23.75
2019-01-27T23:39:06.389Z,23.47
2019-01-27T23:41:35.545Z,23.18
2019-01-27T23:44:04.721Z,25.57
2019-01-27T23:46:34.719Z,20.35
2019-01-27T23:49:03.877Z,18.60
2019-01-27T23:51:33.119Z,23.50
2019-01-27T23:54:02.371Z,19.35
2019-01-27T23:56:31.511Z,13.48
2019-01-27T23:59:00.687Z,15.65
